sensor_id;sensor_type;location;lat;lon;timestamp;temperature;humidity
38325;DHT22;24126;52.672;13.622;2022-10-23T00:02:03;17.40;75.80
38325;DHT22;24126;52.672;13.622;2022-10-23T00:04:30;17.40;75.50
38325;DHT22;24126;52.672;13.622;2022-10-23T00:06:57;17.40;75.60
38325;DHT22;24126;52.672;13.622;2022-10-23T00:09:25;17.40;75.70
38325;DHT22;24126;52.672;13.622;2022-10-23T00:11:52;17.40;75.60
38325;DHT22;24126;52.672;13.622;2022-10-23T00:14:21;17.40;75.70
38325;DHT22;24126;52.672;13.622;2022-10-23T00:19:28;17.50;75.80
38325;DHT22;24126;52.672;13.622;2022-10-23T00:24:29;17.50;75.90
38325;DHT22;24126;52.672;13.622;2022-10-23T00:26:59;17.50;75.50
38325;DHT22;24126;52.672;13.622;2022-10-23T00:32:18;17.40;75.30
38325;DHT22;24126;52.672;13.622;2022-10-23T00:34:48;17.40;75.40
38325;DHT22;24126;52.672;13.622;2022-10-23T00:37:20;17.40;75.30
38325;DHT22;24126;52.672;13.622;2022-10-23T00:39:47;17.40;75.50
38325;DHT22;24126;52.672;13.622;2022-10-23T00:42:19;17.40;75.50
38325;DHT22;24126;52.672;13.622;2022-10-23T00:47:17;17.30;75.60
38325;DHT22;24126;52.672;13.622;2022-10-23T00:49:44;17.30;75.30
38325;DHT22;24126;52.672;13.622;2022-10-23T00:52:11;17.30;75.10
38325;DHT22;24126;52.672;13.622;2022-10-23T00:54:39;17.30;75.10
38325;DHT22;24126;52.672;13.622;2022-10-23T00:57:10;17.20;75.10
38325;DHT22;24126;52.672;13.622;2022-10-23T00:59:40;17.20;75.10
38325;DHT22;24126;52.672;13.622;2022-10-23T01:02:07;17.20;75.10
38325;DHT22;24126;52.672;13.622;2022-10-23T01:04:42;17.20;75.10
38325;DHT22;24126;52.672;13.622;2022-10-23T01:07:12;17.10;75.30
38325;DHT22;24126;52.672;13.622;2022-10-23T01:18:19;17.10;75.80
38325;DHT22;24126;52.672;13.622;2022-10-23T01:28:44;17.20;76.20
38325;DHT22;24126;52.672;13.622;2022-10-23T01:31:15;17.20;76.20
38325;DHT22;24126;52.672;13.622;2022-10-23T01:33:45;17.20;76.20
38325;DHT22;24126;52.672;13.622;2022-10-23T01:36:18;17.20;76.20
38325;DHT22;24126;52.672;13.622;2022-10-23T01:38:52;17.20;76.20
38325;DHT22;24126;52.672;13.622;2022-10-23T01:41:31;17.20;76.20
38325;DHT22;24126;52.672;13.622;2022-10-23T01:46:48;17.20;76.00
38325;DHT22;24126;52.672;13.622;2022-10-23T01:49:22;17.20;76.00
38325;DHT22;24126;52.672;13.622;2022-10-23T01:51:54;17.20;76.10
38325;DHT22;24126;52.672;13.622;2022-10-23T01:54:24;17.20;76.00
38325;DHT22;24126;52.672;13.622;2022-10-23T01:56:52;17.20;76.00
38325;DHT22;24126;52.672;13.622;2022-10-23T01:59:25;17.10;75.90
38325;DHT22;24126;52.672;13.622;2022-10-23T02:01:55;17.20;76.00
38325;DHT22;24126;52.672;13.622;2022-10-23T02:04:28;17.10;76.70
38325;DHT22;24126;52.672;13.622;2022-10-23T02:06:58;17.20;75.90
38325;DHT22;24126;52.672;13.622;2022-10-23T02:09:26;17.10;75.80
38325;DHT22;24126;52.672;13.622;2022-10-23T02:11:54;17.20;76.00
38325;DHT22;24126;52.672;13.622;2022-10-23T02:14:27;17.10;75.80
38325;DHT22;24126;52.672;13.622;2022-10-23T02:17:09;17.20;75.90
38325;DHT22;24126;52.672;13.622;2022-10-23T02:19:44;17.10;75.80
38325;DHT22;24126;52.672;13.622;2022-10-23T02:22:14;17.10;75.90
38325;DHT22;24126;52.672;13.622;2022-10-23T02:24:46;17.00;75.80
38325;DHT22;24126;52.672;13.622;2022-10-23T02:27:19;17.00;75.90
38325;DHT22;24126;52.672;13.622;2022-10-23T02:29:56;17.00;76.00
38325;DHT22;24126;52.672;13.622;2022-10-23T02:32:26;17.00;75.90
38325;DHT22;24126;52.672;13.622;2022-10-23T02:34:55;17.00;75.90
38325;DHT22;24126;52.672;13.622;2022-10-23T02:37:23;17.00;75.80
38325;DHT22;24126;52.672;13.622;2022-10-23T02:39:51;16.90;75.60
38325;DHT22;24126;52.672;13.622;2022-10-23T02:44:55;16.90;75.60
38325;DHT22;24126;52.672;13.622;2022-10-23T02:50:35;16.90;75.70
38325;DHT22;24126;52.672;13.622;2022-10-23T03:01:01;16.80;76.20
38325;DHT22;24126;52.672;13.622;2022-10-23T03:03:38;16.80;76.30
38325;DHT22;24126;52.672;13.622;2022-10-23T03:06:06;16.80;76.40
38325;DHT22;24126;52.672;13.622;2022-10-23T03:08:41;16.80;76.50
38325;DHT22;24126;52.672;13.622;2022-10-23T03:11:08;16.80;76.60
38325;DHT22;24126;52.672;13.622;2022-10-23T03:16:06;16.80;76.40
38325;DHT22;24126;52.672;13.622;2022-10-23T03:18:34;16.80;76.20
38325;DHT22;24126;52.672;13.622;2022-10-23T03:21:02;16.80;76.20
38325;DHT22;24126;52.672;13.622;2022-10-23T03:23:40;16.80;76.10
38325;DHT22;24126;52.672;13.622;2022-10-23T03:26:09;16.80;76.00
38325;DHT22;24126;52.672;13.622;2022-10-23T03:28:47;16.70;76.00
38325;DHT22;24126;52.672;13.622;2022-10-23T03:31:16;16.80;76.00
38325;DHT22;24126;52.672;13.622;2022-10-23T03:33:48;16.70;75.80
38325;DHT22;24126;52.672;13.622;2022-10-23T03:36:17;16.70;76.00
38325;DHT22;24126;52.672;13.622;2022-10-23T03:38:46;16.70;75.80
38325;DHT22;24126;52.672;13.622;2022-10-23T03:41:13;16.70;75.70
38325;DHT22;24126;52.672;13.622;2022-10-23T03:43:41;16.70;75.80
38325;DHT22;24126;52.672;13.622;2022-10-23T03:46:13;16.70;75.80
38325;DHT22;24126;52.672;13.622;2022-10-23T03:48:41;16.60;75.90
38325;DHT22;24126;52.672;13.622;2022-10-23T03:51:08;16.60;75.80
38325;DHT22;24126;52.672;13.622;2022-10-23T03:53:46;16.60;76.50
38325;DHT22;24126;52.672;13.622;2022-10-23T03:56:15;16.60;75.90
38325;DHT22;24126;52.672;13.622;2022-10-23T03:58:42;16.60;75.80
38325;DHT22;24126;52.672;13.622;2022-10-23T04:01:09;16.60;75.90
38325;DHT22;24126;52.672;13.622;2022-10-23T04:06:08;16.60;76.20
38325;DHT22;24126;52.672;13.622;2022-10-23T04:08:36;16.60;76.20
38325;DHT22;24126;52.672;13.622;2022-10-23T04:11:10;16.60;76.00
38325;DHT22;24126;52.672;13.622;2022-10-23T04:13:47;16.50;75.90
38325;DHT22;24126;52.672;13.622;2022-10-23T04:16:14;16.50;75.90
38325;DHT22;24126;52.672;13.622;2022-10-23T04:18:43;16.50;76.10
38325;DHT22;24126;52.672;13.622;2022-10-23T04:21:10;16.50;76.00
38325;DHT22;24126;52.672;13.622;2022-10-23T04:23:38;16.50;76.20
38325;DHT22;24126;52.672;13.622;2022-10-23T04:26:11;16.40;76.10
38325;DHT22;24126;52.672;13.622;2022-10-23T04:28:38;16.50;76.20
38325;DHT22;24126;52.672;13.622;2022-10-23T04:33:58;16.40;75.80
38325;DHT22;24126;52.672;13.622;2022-10-23T04:36:29;16.40;75.70
38325;DHT22;24126;52.672;13.622;2022-10-23T04:39:01;16.40;75.90
38325;DHT22;24126;52.672;13.622;2022-10-23T04:41:29;16.40;76.00
38325;DHT22;24126;52.672;13.622;2022-10-23T04:43:56;16.30;76.20
38325;DHT22;24126;52.672;13.622;2022-10-23T04:49:06;16.30;76.30
38325;DHT22;24126;52.672;13.622;2022-10-23T04:51:52;16.20;76.60
38325;DHT22;24126;52.672;13.622;2022-10-23T04:54:45;16.20;76.10
38325;DHT22;24126;52.672;13.622;2022-10-23T04:57:31;16.10;76.00
38325;DHT22;24126;52.672;13.622;2022-10-23T05:00:05;16.10;76.20
38325;DHT22;24126;52.672;13.622;2022-10-23T05:02:39;16.10;76.20
38325;DHT22;24126;52.672;13.622;2022-10-23T05:05:07;16.10;76.00
38325;DHT22;24126;52.672;13.622;2022-10-23T05:07:35;16.10;76.00
38325;DHT22;24126;52.672;13.622;2022-10-23T05:10:28;16.10;76.00
38325;DHT22;24126;52.672;13.622;2022-10-23T05:13:04;16.00;75.80
38325;DHT22;24126;52.672;13.622;2022-10-23T05:15:32;16.00;76.10
38325;DHT22;24126;52.672;13.622;2022-10-23T05:18:01;15.90;76.20
38325;DHT22;24126;52.672;13.622;2022-10-23T05:20:33;15.90;76.20
38325;DHT22;24126;52.672;13.622;2022-10-23T05:23:01;15.90;76.00
38325;DHT22;24126;52.672;13.622;2022-10-23T05:25:28;15.80;76.10
38325;DHT22;24126;52.672;13.622;2022-10-23T05:28:08;15.80;76.30
38325;DHT22;24126;52.672;13.622;2022-10-23T05:30:35;15.70;76.20
38325;DHT22;24126;52.672;13.622;2022-10-23T05:33:03;15.70;76.20
38325;DHT22;24126;52.672;13.622;2022-10-23T05:35:36;15.60;76.20
38325;DHT22;24126;52.672;13.622;2022-10-23T05:38:03;15.60;76.10
38325;DHT22;24126;52.672;13.622;2022-10-23T05:40:32;15.50;76.00
38325;DHT22;24126;52.672;13.622;2022-10-23T05:46:03;15.50;76.20
38325;DHT22;24126;52.672;13.622;2022-10-23T05:48:32;15.50;76.10
38325;DHT22;24126;52.672;13.622;2022-10-23T05:51:20;15.50;76.00
38325;DHT22;24126;52.672;13.622;2022-10-23T05:54:26;15.40;75.90
38325;DHT22;24126;52.672;13.622;2022-10-23T05:56:59;15.40;75.90
38325;DHT22;24126;52.672;13.622;2022-10-23T05:59:32;15.40;76.10
38325;DHT22;24126;52.672;13.622;2022-10-23T06:02:21;15.40;76.00
38325;DHT22;24126;52.672;13.622;2022-10-23T06:04:54;15.30;75.60
38325;DHT22;24126;52.672;13.622;2022-10-23T06:07:49;15.20;75.40
38325;DHT22;24126;52.672;13.622;2022-10-23T06:10:17;15.20;76.20
38325;DHT22;24126;52.672;13.622;2022-10-23T06:12:48;15.10;76.00
38325;DHT22;24126;52.672;13.622;2022-10-23T06:15:17;15.10;76.20
38325;DHT22;24126;52.672;13.622;2022-10-23T06:17:59;15.10;76.40
38325;DHT22;24126;52.672;13.622;2022-10-23T06:23:11;15.10;76.50
38325;DHT22;24126;52.672;13.622;2022-10-23T06:25:57;15.00;76.50
38325;DHT22;24126;52.672;13.622;2022-10-23T06:28:32;15.00;76.80
38325;DHT22;24126;52.672;13.622;2022-10-23T06:31:07;15.00;76.70
38325;DHT22;24126;52.672;13.622;2022-10-23T06:33:35;15.00;76.50
38325;DHT22;24126;52.672;13.622;2022-10-23T06:36:04;15.00;76.30
38325;DHT22;24126;52.672;13.622;2022-10-23T06:38:37;15.10;76.30
38325;DHT22;24126;52.672;13.622;2022-10-23T06:41:06;15.10;76.10
38325;DHT22;24126;52.672;13.622;2022-10-23T06:43:38;15.10;76.30
38325;DHT22;24126;52.672;13.622;2022-10-23T06:46:15;15.10;76.70
38325;DHT22;24126;52.672;13.622;2022-10-23T06:49:05;15.10;77.20
38325;DHT22;24126;52.672;13.622;2022-10-23T06:51:38;15.20;77.20
38325;DHT22;24126;52.672;13.622;2022-10-23T06:54:09;15.20;77.10
38325;DHT22;24126;52.672;13.622;2022-10-23T06:56:49;15.20;77.20
38325;DHT22;24126;52.672;13.622;2022-10-23T06:59:30;15.30;77.40
38325;DHT22;24126;52.672;13.622;2022-10-23T07:01:57;15.30;77.50
38325;DHT22;24126;52.672;13.622;2022-10-23T07:04:24;15.50;77.30
38325;DHT22;24126;52.672;13.622;2022-10-23T07:09:36;15.60;77.80
38325;DHT22;24126;52.672;13.622;2022-10-23T07:12:30;15.70;78.10
38325;DHT22;24126;52.672;13.622;2022-10-23T07:15:17;15.70;78.00
38325;DHT22;24126;52.672;13.622;2022-10-23T07:17:44;15.80;77.80
38325;DHT22;24126;52.672;13.622;2022-10-23T07:20:11;15.90;78.00
38325;DHT22;24126;52.672;13.622;2022-10-23T07:22:39;16.00;77.90
38325;DHT22;24126;52.672;13.622;2022-10-23T07:25:11;16.00;77.80
38325;DHT22;24126;52.672;13.622;2022-10-23T07:27:39;16.10;77.80
38325;DHT22;24126;52.672;13.622;2022-10-23T07:30:10;16.20;77.80
38325;DHT22;24126;52.672;13.622;2022-10-23T07:32:48;16.20;77.70
38325;DHT22;24126;52.672;13.622;2022-10-23T07:35:28;16.30;77.70
38325;DHT22;24126;52.672;13.622;2022-10-23T07:38:16;16.40;77.70
38325;DHT22;24126;52.672;13.622;2022-10-23T07:40:48;16.50;77.70
38325;DHT22;24126;52.672;13.622;2022-10-23T07:43:17;16.60;77.60
38325;DHT22;24126;52.672;13.622;2022-10-23T07:45:47;16.70;77.60
38325;DHT22;24126;52.672;13.622;2022-10-23T07:48:26;16.80;77.70
38325;DHT22;24126;52.672;13.622;2022-10-23T07:50:59;17.00;77.50
38325;DHT22;24126;52.672;13.622;2022-10-23T07:53:28;17.20;76.90
38325;DHT22;24126;52.672;13.622;2022-10-23T07:56:02;17.40;76.50
38325;DHT22;24126;52.672;13.622;2022-10-23T07:58:56;17.50;76.30
38325;DHT22;24126;52.672;13.622;2022-10-23T08:01:28;17.60;76.10
38325;DHT22;24126;52.672;13.622;2022-10-23T08:03:57;17.70;76.30
38325;DHT22;24126;52.672;13.622;2022-10-23T08:06:24;17.80;76.40
38325;DHT22;24126;52.672;13.622;2022-10-23T08:08:52;17.90;76.00
38325;DHT22;24126;52.672;13.622;2022-10-23T08:11:21;18.10;75.50
38325;DHT22;24126;52.672;13.622;2022-10-23T08:13:51;18.20;75.40
38325;DHT22;24126;52.672;13.622;2022-10-23T08:16:20;18.30;75.10
38325;DHT22;24126;52.672;13.622;2022-10-23T08:19:03;18.30;75.20
38325;DHT22;24126;52.672;13.622;2022-10-23T08:21:31;18.40;75.20
38325;DHT22;24126;52.672;13.622;2022-10-23T08:26:52;18.50;75.50
38325;DHT22;24126;52.672;13.622;2022-10-23T08:29:22;18.70;75.70
38325;DHT22;24126;52.672;13.622;2022-10-23T08:31:52;18.80;75.80
38325;DHT22;24126;52.672;13.622;2022-10-23T08:34:50;19.00;75.80
38325;DHT22;24126;52.672;13.622;2022-10-23T08:37:25;19.40;74.90
38325;DHT22;24126;52.672;13.622;2022-10-23T08:40:00;19.60;74.70
38325;DHT22;24126;52.672;13.622;2022-10-23T08:42:55;19.90;73.50
38325;DHT22;24126;52.672;13.622;2022-10-23T08:45:36;20.20;73.70
38325;DHT22;24126;52.672;13.622;2022-10-23T08:48:25;20.50;73.10
38325;DHT22;24126;52.672;13.622;2022-10-23T08:51:15;20.80;72.40
38325;DHT22;24126;52.672;13.622;2022-10-23T08:56:48;21.20;71.10
38325;DHT22;24126;52.672;13.622;2022-10-23T08:59:27;21.40;70.10
38325;DHT22;24126;52.672;13.622;2022-10-23T09:02:01;21.60;69.80
38325;DHT22;24126;52.672;13.622;2022-10-23T09:04:30;21.70;69.80
38325;DHT22;24126;52.672;13.622;2022-10-23T09:12:20;22.40;68.60
38325;DHT22;24126;52.672;13.622;2022-10-23T09:17:37;22.80;67.20
38325;DHT22;24126;52.672;13.622;2022-10-23T09:20:25;23.00;66.60
38325;DHT22;24126;52.672;13.622;2022-10-23T09:22:57;23.20;66.10
38325;DHT22;24126;52.672;13.622;2022-10-23T09:25:27;23.30;65.10
38325;DHT22;24126;52.672;13.622;2022-10-23T09:27:57;23.40;65.30
38325;DHT22;24126;52.672;13.622;2022-10-23T09:30:42;23.40;64.30
38325;DHT22;24126;52.672;13.622;2022-10-23T09:33:14;23.40;64.00
38325;DHT22;24126;52.672;13.622;2022-10-23T09:38:46;23.50;63.90
38325;DHT22;24126;52.672;13.622;2022-10-23T09:41:35;23.50;64.10
38325;DHT22;24126;52.672;13.622;2022-10-23T09:47:15;23.80;64.20
38325;DHT22;24126;52.672;13.622;2022-10-23T09:50:17;23.90;63.70
38325;DHT22;24126;52.672;13.622;2022-10-23T09:56:11;24.30;62.10
38325;DHT22;24126;52.672;13.622;2022-10-23T10:01:51;24.40;62.40
38325;DHT22;24126;52.672;13.622;2022-10-23T10:04:57;24.60;61.30
38325;DHT22;24126;52.672;13.622;2022-10-23T10:07:35;24.70;60.30
38325;DHT22;24126;52.672;13.622;2022-10-23T10:13:33;24.70;59.70
38325;DHT22;24126;52.672;13.622;2022-10-23T10:16:21;24.70;59.40
38325;DHT22;24126;52.672;13.622;2022-10-23T10:30:36;24.60;58.70
38325;DHT22;24126;52.672;13.622;2022-10-23T10:36:10;24.60;59.50
38325;DHT22;24126;52.672;13.622;2022-10-23T10:53:13;24.90;58.50
38325;DHT22;24126;52.672;13.622;2022-10-23T10:55:58;24.90;57.70
38325;DHT22;24126;52.672;13.622;2022-10-23T10:58:54;24.90;58.30
38325;DHT22;24126;52.672;13.622;2022-10-23T11:07:24;25.00;58.40
38325;DHT22;24126;52.672;13.622;2022-10-23T11:12:50;25.00;58.10
38325;DHT22;24126;52.672;13.622;2022-10-23T11:15:19;25.00;57.40
38325;DHT22;24126;52.672;13.622;2022-10-23T11:17:56;24.90;58.20
38325;DHT22;24126;52.672;13.622;2022-10-23T11:23:07;24.80;57.80
38325;DHT22;24126;52.672;13.622;2022-10-23T11:40:32;24.10;59.10
38325;DHT22;24126;52.672;13.622;2022-10-23T11:43:31;24.00;58.70
38325;DHT22;24126;52.672;13.622;2022-10-23T11:46:12;24.10;59.40
38325;DHT22;24126;52.672;13.622;2022-10-23T11:48:46;24.10;59.30
38325;DHT22;24126;52.672;13.622;2022-10-23T11:51:30;24.10;58.90
38325;DHT22;24126;52.672;13.622;2022-10-23T11:56:53;24.10;58.80
38325;DHT22;24126;52.672;13.622;2022-10-23T11:59:34;24.00;59.10
38325;DHT22;24126;52.672;13.622;2022-10-23T12:02:08;24.00;59.20
38325;DHT22;24126;52.672;13.622;2022-10-23T12:04:44;24.10;59.60
38325;DHT22;24126;52.672;13.622;2022-10-23T12:07:29;24.10;59.50
38325;DHT22;24126;52.672;13.622;2022-10-23T12:10:06;24.10;59.80
38325;DHT22;24126;52.672;13.622;2022-10-23T12:25:23;23.80;59.70
38325;DHT22;24126;52.672;13.622;2022-10-23T12:30:44;23.80;60.20
38325;DHT22;24126;52.672;13.622;2022-10-23T12:33:28;23.80;60.30
38325;DHT22;24126;52.672;13.622;2022-10-23T12:36:05;23.80;60.10
38325;DHT22;24126;52.672;13.622;2022-10-23T12:38:40;23.70;60.10
38325;DHT22;24126;52.672;13.622;2022-10-23T12:41:17;23.70;60.30
38325;DHT22;24126;52.672;13.622;2022-10-23T12:44:04;23.70;60.50
38325;DHT22;24126;52.672;13.622;2022-10-23T12:46:39;23.60;61.00
38325;DHT22;24126;52.672;13.622;2022-10-23T12:49:17;23.70;60.90
38325;DHT22;24126;52.672;13.622;2022-10-23T12:52:20;23.60;61.00
38325;DHT22;24126;52.672;13.622;2022-10-23T12:57:28;23.60;61.40
38325;DHT22;24126;52.672;13.622;2022-10-23T12:59:59;23.60;61.40
38325;DHT22;24126;52.672;13.622;2022-10-23T13:02:28;23.50;61.30
38325;DHT22;24126;52.672;13.622;2022-10-23T13:04:57;23.50;61.60
38325;DHT22;24126;52.672;13.622;2022-10-23T13:07:26;23.50;61.90
38325;DHT22;24126;52.672;13.622;2022-10-23T13:09:58;23.50;62.00
38325;DHT22;24126;52.672;13.622;2022-10-23T13:12:29;23.40;61.90
38325;DHT22;24126;52.672;13.622;2022-10-23T13:22:57;23.30;62.20
38325;DHT22;24126;52.672;13.622;2022-10-23T13:34:13;23.20;62.00
38325;DHT22;24126;52.672;13.622;2022-10-23T13:41:28;23.20;62.10
38325;DHT22;24126;52.672;13.622;2022-10-23T13:43:55;23.20;62.20
38325;DHT22;24126;52.672;13.622;2022-10-23T13:46:23;23.10;61.80
38325;DHT22;24126;52.672;13.622;2022-10-23T13:48:51;23.10;62.10
38325;DHT22;24126;52.672;13.622;2022-10-23T13:51:23;23.10;62.10
38325;DHT22;24126;52.672;13.622;2022-10-23T13:53:52;23.10;62.10
38325;DHT22;24126;52.672;13.622;2022-10-23T13:56:20;23.00;62.00
38325;DHT22;24126;52.672;13.622;2022-10-23T14:01:26;23.00;62.30
38325;DHT22;24126;52.672;13.622;2022-10-23T14:03:54;23.10;62.10
38325;DHT22;24126;52.672;13.622;2022-10-23T14:06:22;23.00;61.80
38325;DHT22;24126;52.672;13.622;2022-10-23T14:23:25;22.90;62.70
38325;DHT22;24126;52.672;13.622;2022-10-23T14:25:52;22.80;62.60
38325;DHT22;24126;52.672;13.622;2022-10-23T14:28:30;22.80;62.70
38325;DHT22;24126;52.672;13.622;2022-10-23T14:33:41;22.80;63.30
38325;DHT22;24126;52.672;13.622;2022-10-23T15:20:22;22.10;65.30
38325;DHT22;24126;52.672;13.622;2022-10-23T15:22:51;22.10;65.60
38325;DHT22;24126;52.672;13.622;2022-10-23T15:25:18;22.00;65.60
38325;DHT22;24126;52.672;13.622;2022-10-23T15:27:48;22.00;65.80
38325;DHT22;24126;52.672;13.622;2022-10-23T15:30:15;21.90;65.80
38325;DHT22;24126;52.672;13.622;2022-10-23T15:32:42;22.00;66.00
38325;DHT22;24126;52.672;13.622;2022-10-23T15:35:15;21.90;65.90
38325;DHT22;24126;52.672;13.622;2022-10-23T15:37:42;21.90;66.00
38325;DHT22;24126;52.672;13.622;2022-10-23T15:40:09;21.80;66.10
38325;DHT22;24126;52.672;13.622;2022-10-23T15:42:36;21.80;66.20
38325;DHT22;24126;52.672;13.622;2022-10-23T15:45:03;21.70;66.20
38325;DHT22;24126;52.672;13.622;2022-10-23T15:47:30;21.70;66.40
38325;DHT22;24126;52.672;13.622;2022-10-23T15:49:57;21.60;66.40
38325;DHT22;24126;52.672;13.622;2022-10-23T15:52:24;21.60;66.60
38325;DHT22;24126;52.672;13.622;2022-10-23T15:54:51;21.50;66.70
38325;DHT22;24126;52.672;13.622;2022-10-23T15:57:18;21.50;66.80
38325;DHT22;24126;52.672;13.622;2022-10-23T15:59:46;21.40;66.70
38325;DHT22;24126;52.672;13.622;2022-10-23T16:02:13;21.40;66.90
38325;DHT22;24126;52.672;13.622;2022-10-23T16:04:40;21.30;67.00
38325;DHT22;24126;52.672;13.622;2022-10-23T16:07:07;21.30;67.10
38325;DHT22;24126;52.672;13.622;2022-10-23T16:09:34;21.30;67.20
38325;DHT22;24126;52.672;13.622;2022-10-23T16:12:02;21.20;67.20
38325;DHT22;24126;52.672;13.622;2022-10-23T16:14:29;21.20;67.30
38325;DHT22;24126;52.672;13.622;2022-10-23T16:16:56;21.20;67.30
38325;DHT22;24126;52.672;13.622;2022-10-23T16:19:23;21.10;67.40
38325;DHT22;24126;52.672;13.622;2022-10-23T16:21:50;21.10;67.40
38325;DHT22;24126;52.672;13.622;2022-10-23T16:24:18;21.00;67.50
38325;DHT22;24126;52.672;13.622;2022-10-23T16:26:47;21.00;67.60
38325;DHT22;24126;52.672;13.622;2022-10-23T16:29:18;21.00;67.70
38325;DHT22;24126;52.672;13.622;2022-10-23T16:31:48;20.90;68.00
38325;DHT22;24126;52.672;13.622;2022-10-23T16:34:15;21.00;68.10
38325;DHT22;24126;52.672;13.622;2022-10-23T16:36:44;20.90;68.20
38325;DHT22;24126;52.672;13.622;2022-10-23T16:39:19;20.90;68.40
38325;DHT22;24126;52.672;13.622;2022-10-23T16:42:05;20.90;68.40
38325;DHT22;24126;52.672;13.622;2022-10-23T16:44:51;20.90;68.50
38325;DHT22;24126;52.672;13.622;2022-10-23T16:47:18;20.90;68.80
38325;DHT22;24126;52.672;13.622;2022-10-23T16:49:45;20.80;68.70
38325;DHT22;24126;52.672;13.622;2022-10-23T16:52:13;20.80;68.80
38325;DHT22;24126;52.672;13.622;2022-10-23T16:54:41;20.80;68.80
38325;DHT22;24126;52.672;13.622;2022-10-23T16:57:08;20.80;68.90
38325;DHT22;24126;52.672;13.622;2022-10-23T16:59:35;20.80;69.00
38325;DHT22;24126;52.672;13.622;2022-10-23T17:02:06;20.80;69.10
38325;DHT22;24126;52.672;13.622;2022-10-23T17:04:34;20.80;69.20
38325;DHT22;24126;52.672;13.622;2022-10-23T17:07:02;20.80;69.20
38325;DHT22;24126;52.672;13.622;2022-10-23T17:09:31;20.80;69.20
38325;DHT22;24126;52.672;13.622;2022-10-23T17:12:00;20.80;69.30
38325;DHT22;24126;52.672;13.622;2022-10-23T17:14:27;20.70;69.20
38325;DHT22;24126;52.672;13.622;2022-10-23T17:16:56;20.70;69.30
38325;DHT22;24126;52.672;13.622;2022-10-23T17:19:24;20.70;69.20
38325;DHT22;24126;52.672;13.622;2022-10-23T17:21:58;20.70;69.20
38325;DHT22;24126;52.672;13.622;2022-10-23T17:24:26;20.70;69.30
38325;DHT22;24126;52.672;13.622;2022-10-23T17:26:54;20.70;69.30
38325;DHT22;24126;52.672;13.622;2022-10-23T17:29:21;20.70;69.30
38325;DHT22;24126;52.672;13.622;2022-10-23T17:31:49;20.70;69.30
38325;DHT22;24126;52.672;13.622;2022-10-23T17:34:19;20.70;69.30
38325;DHT22;24126;52.672;13.622;2022-10-23T17:36:51;20.70;69.40
38325;DHT22;24126;52.672;13.622;2022-10-23T17:39:24;20.70;69.30
38325;DHT22;24126;52.672;13.622;2022-10-23T17:41:52;20.70;69.30
38325;DHT22;24126;52.672;13.622;2022-10-23T17:44:20;20.70;69.30
38325;DHT22;24126;52.672;13.622;2022-10-23T17:46:57;20.70;69.30
38325;DHT22;24126;52.672;13.622;2022-10-23T17:49:38;20.60;69.40
38325;DHT22;24126;52.672;13.622;2022-10-23T17:52:05;20.70;69.30
38325;DHT22;24126;52.672;13.622;2022-10-23T18:06:54;20.60;69.40
38325;DHT22;24126;52.672;13.622;2022-10-23T18:09:21;20.50;69.40
38325;DHT22;24126;52.672;13.622;2022-10-23T18:11:49;20.50;69.40
38325;DHT22;24126;52.672;13.622;2022-10-23T18:14:18;20.50;69.60
38325;DHT22;24126;52.672;13.622;2022-10-23T18:16:46;20.50;69.50
38325;DHT22;24126;52.672;13.622;2022-10-23T18:19:14;20.50;69.40
38325;DHT22;24126;52.672;13.622;2022-10-23T18:30:25;20.50;69.50
38325;DHT22;24126;52.672;13.622;2022-10-23T18:33:37;20.40;69.30
38325;DHT22;24126;52.672;13.622;2022-10-23T18:49:09;20.30;69.10
38325;DHT22;24126;52.672;13.622;2022-10-23T20:03:33;19.70;68.70
38325;DHT22;24126;52.672;13.622;2022-10-23T20:06:02;19.70;68.70
38325;DHT22;24126;52.672;13.622;2022-10-23T20:08:29;19.60;68.70
38325;DHT22;24126;52.672;13.622;2022-10-23T20:10:56;19.60;68.60
38325;DHT22;24126;52.672;13.622;2022-10-23T20:13:23;19.60;68.50
38325;DHT22;24126;52.672;13.622;2022-10-23T20:15:50;19.60;68.60
38325;DHT22;24126;52.672;13.622;2022-10-23T20:18:20;19.60;68.50
38325;DHT22;24126;52.672;13.622;2022-10-23T20:20:47;19.60;68.50
38325;DHT22;24126;52.672;13.622;2022-10-23T20:23:14;19.60;68.40
38325;DHT22;24126;52.672;13.622;2022-10-23T20:25:42;19.50;68.50
38325;DHT22;24126;52.672;13.622;2022-10-23T20:28:09;19.50;68.40
38325;DHT22;24126;52.672;13.622;2022-10-23T20:30:40;19.50;68.50
38325;DHT22;24126;52.672;13.622;2022-10-23T20:33:09;19.50;68.50
38325;DHT22;24126;52.672;13.622;2022-10-23T20:35:40;19.50;68.40
38325;DHT22;24126;52.672;13.622;2022-10-23T20:38:07;19.40;68.40
38325;DHT22;24126;52.672;13.622;2022-10-23T20:40:35;19.50;68.40
38325;DHT22;24126;52.672;13.622;2022-10-23T20:43:02;19.40;69.10
38325;DHT22;24126;52.672;13.622;2022-10-23T20:45:30;19.40;68.30
38325;DHT22;24126;52.672;13.622;2022-10-23T20:47:57;19.40;68.30
38325;DHT22;24126;52.672;13.622;2022-10-23T20:50:25;19.30;68.40
38325;DHT22;24126;52.672;13.622;2022-10-23T20:55:46;19.30;68.50
38325;DHT22;24126;52.672;13.622;2022-10-23T20:58:21;19.30;68.40
38325;DHT22;24126;52.672;13.622;2022-10-23T21:00:48;19.30;68.50
38325;DHT22;24126;52.672;13.622;2022-10-23T21:05:46;19.30;68.60
38325;DHT22;24126;52.672;13.622;2022-10-23T21:08:15;19.30;68.40
38325;DHT22;24126;52.672;13.622;2022-10-23T21:10:45;19.20;68.40
38325;DHT22;24126;52.672;13.622;2022-10-23T21:13:14;19.20;68.50
38325;DHT22;24126;52.672;13.622;2022-10-23T21:15:41;19.10;68.60
38325;DHT22;24126;52.672;13.622;2022-10-23T21:18:08;19.20;68.70
38325;DHT22;24126;52.672;13.622;2022-10-23T21:20:40;19.10;68.70
38325;DHT22;24126;52.672;13.622;2022-10-23T21:23:08;19.10;68.70
38325;DHT22;24126;52.672;13.622;2022-10-23T21:25:39;19.10;68.80
38325;DHT22;24126;52.672;13.622;2022-10-23T21:28:07;19.10;68.80
38325;DHT22;24126;52.672;13.622;2022-10-23T21:30:35;19.00;68.80
38325;DHT22;24126;52.672;13.622;2022-10-23T21:33:04;19.10;68.90
38325;DHT22;24126;52.672;13.622;2022-10-23T21:35:32;19.00;68.90
38325;DHT22;24126;52.672;13.622;2022-10-23T21:37:59;19.00;68.90
38325;DHT22;24126;52.672;13.622;2022-10-23T21:40:27;19.00;68.90
38325;DHT22;24126;52.672;13.622;2022-10-23T21:42:54;18.90;69.00
38325;DHT22;24126;52.672;13.622;2022-10-23T21:45:21;18.90;69.00
38325;DHT22;24126;52.672;13.622;2022-10-23T21:47:48;18.90;69.10
38325;DHT22;24126;52.672;13.622;2022-10-23T21:50:15;18.90;69.20
38325;DHT22;24126;52.672;13.622;2022-10-23T21:52:42;18.90;69.30